PDT,Max TemperatureF,Mean TemperatureF,Min TemperatureF,Max Dew PointF,MeanDew PointF,Min DewpointF,Max Humidity, Mean Humidity, Min Humidity, Max Sea Level PressureIn, Mean Sea Level PressureIn, Min Sea Level PressureIn, Max VisibilityMiles, Mean VisibilityMiles, Min VisibilityMiles, Max Wind SpeedMPH, Mean Wind SpeedMPH, Max Gust SpeedMPH,PrecipitationIn, CloudCover, Events, WindDirDegrees
2013-4-1,64,58,52,56,53,48,100,84,67,30.18,30.11,30.06,10,8,3,43,8,55,0.00,5,,270
2013-4-2,65,57,48,55,51,46,93,78,63,30.09,30.05,29.99,10,10,9,9,5,,0.00,1,,128
2013-4-3,63,57,50,55,52,48,100,86,72,30.10,30.05,30.01,10,6,0,15,6,18,0.00,5,Fog,162
2013-4-4,67,61,54,56,54,52,100,82,63,30.12,30.06,29.99,10,7,1,23,7,28,0.01,5,Rain,201
2013-4-5,77,64,51,55,52,49,96,71,46,30.09,30.04,29.97,10,10,9,21,5,28,0.00,1,,222
2013-4-6,82,69,56,55,51,46,86,61,35,30.09,30.01,29.95,10,10,7,23,9,55,0.00,0,,187
2013-4-7,85,70,55,51,47,43,64,44,23,29.97,29.88,29.80,10,10,10,26,10,54,0.00,0,,306
2013-4-8,68,60,52,48,41,37,72,52,32,29.86,29.77,29.73,10,10,10,35,18,45,0.00,1,,288
2013-4-9,72,61,49,48,39,34,59,45,31,30.00,29.92,29.86,10,10,10,20,6,26,0.00,0,,288
2013-4-10,75,61,47,53,44,36,78,55,32,30.10,30.03,29.96,10,10,9,12,4,13,0.00,0,,188
2013-4-11,71,61,51,52,49,45,89,65,40,29.96,29.86,29.75,10,9,6,14,4,,0.00,0,,141
2013-4-12,64,58,51,52,51,47,93,80,67,29.88,29.83,29.79,10,7,5,13,6,,0.00,3,,144
2013-4-13,59,57,54,54,52,50,93,87,80,29.92,29.89,29.85,10,8,4,12,4,,0.00,8,,161
2013-4-14,63,56,49,52,50,47,89,75,60,29.88,29.85,29.82,10,8,6,9,3,,0.00,6,,213
2013-4-15,66,56,45,51,44,36,93,66,39,29.90,29.85,29.81,10,10,9,25,7,31,0.00,1,,296
2013-4-16,72,59,46,41,34,26,71,46,20,30.03,29.94,29.88,10,10,10,25,11,36,0.00,0,,299
2013-4-17,76,62,47,43,30,15,56,34,11,30.14,30.08,30.04,10,10,10,22,9,28,0.00,0,,298
2013-4-18,71,58,45,45,34,19,66,43,20,30.22,30.17,30.13,10,10,10,30,5,23,0.00,0,,269
2013-4-19,72,58,43,52,46,36,83,55,27,30.17,30.08,29.97,10,10,9,10,3,13,0.00,0,,155
2013-4-20,83,70,56,55,50,41,84,55,26,29.99,29.92,29.88,10,10,8,13,7,,0.00,0,,161
2013-4-21,69,62,54,56,54,48,93,74,55,29.99,29.97,29.91,10,7,0,12,6,,0.00,3,Fog,129
2013-4-22,65,60,54,54,52,51,93,80,67,30.02,29.96,29.89,10,8,6,13,7,15,0.00,6,,154
2013-4-23,66,60,54,54,52,50,93,78,63,29.97,29.92,29.88,10,8,3,12,4,118,0.00,5,,224
2013-4-24,59,57,55,55,53,52,93,84,75,29.98,29.93,29.89,10,6,1,8,4,10,0.01,8,Rain,133
2013-4-25,68,59,50,53,50,48,89,71,52,30.11,30.04,29.96,10,10,9,15,5,18,0.01,1,,217
2013-4-26,69,60,50,55,51,47,89,71,52,30.16,30.12,30.09,10,10,9,10,5,13,0.00,0,,144
2013-4-27,70,60,50,55,52,49,89,74,58,30.14,30.07,29.98,10,9,6,14,4,16,0.00,0,,194
2013-4-28,64,60,55,55,53,51,93,83,72,30.00,29.94,29.85,9,7,3,12,7,17,0.00,5,,138
2013-4-29,65,60,54,55,53,51,93,83,72,29.91,29.86,29.79,10,6,3,14,6,,0.00,7,,152
2013-4-30,62,59,56,56,54,53,93,83,72,29.88,29.85,29.82,10,5,2,7,3,9,0.01,7,Rain,187